Time;durP1;ratioP1;P1;durP2;ratioP2;P2;SDS_P1;SDS_P2;PMS_P1;PMS_P2;Temp;Humidity;BMP_temperature;BMP_pressure;BME280_temperature;BME280_humidity;BME280_pressure;Samples;Min_cycle;Max_cycle;Signal;HPM_P1;HPM_P2
2024/04/12 00:01:14;;;;;;;15.93;5.80;;;;;;;;;;5455473;26;20015;-80
2024/04/12 00:03:48;;;;;;;10.02;5.95;;;;;;;;;;5455143;26;20023;-80
2024/04/12 00:06:18;;;;;;;12.73;6.22;;;;;;;;;;5454091;26;20019;-83
2024/04/12 00:08:52;;;;;;;11.68;5.50;;;;;;;;;;5458803;26;20472;-84
2024/04/12 00:11:23;;;;;;;12.02;5.22;;;;;;;;;;5456487;26;20032;-78
2024/04/12 00:13:54;;;;;;;13.45;6.00;;;;;;;;;;5456212;26;20027;-79
2024/04/12 00:16:24;;;;;;;10.85;4.68;;;;;;;;;;5455126;26;20019;-84
2024/04/12 00:19:13;;;;;;;12.48;6.10;;;;;;;;;;5453717;26;20035;-84
2024/04/12 00:21:46;;;;;;;12.18;5.22;;;;;;;;;;5455091;26;20023;-79
2024/04/12 00:24:17;;;;;;;11.30;5.32;;;;;;;;;;5456278;26;20466;-80
2024/04/12 00:26:48;;;;;;;14.48;5.40;;;;;;;;;;5455268;26;20028;-80
2024/04/12 00:29:31;;;;;;;12.65;5.50;;;;;;;;;;5500817;26;20029;-82
2024/04/12 00:32:13;;;;;;;10.88;6.00;;;;;;;;;;5498719;26;20034;-81
2024/04/12 00:35:11;;;;;;;17.23;6.22;;;;;;;;;;5492227;26;20019;-81
2024/04/12 00:37:52;;;;;;;15.15;6.35;;;;;;;;;;5491075;26;20020;-85
2024/04/12 00:40:23;;;;;;;15.13;6.85;;;;;;;;;;5492846;26;20465;-85
2024/04/12 00:42:57;;;;;;;22.13;7.65;;;;;;;;;;5490203;26;20026;-83
2024/04/12 00:45:39;;;;;;;15.95;8.25;;;;;;;;;;5489657;26;20018;-81
2024/04/12 00:48:34;;;;;;;16.58;5.70;;;;;;;;;;5490947;26;20357;-80
2024/04/12 00:51:05;;;;;;;9.85;6.00;;;;;;;;;;5488825;26;20022;-82
2024/04/12 00:53:40;;;;;;;12.52;5.53;;;;;;;;;;5491218;26;20037;-79
2024/04/12 00:56:13;;;;;;;;;;;;;;;;;;5491684;26;20483;-81
2024/04/12 00:58:47;;;;;;;17.25;5.72;;;;;;;;;;5491584;26;19956;-84
2024/04/12 01:01:22;;;;;;;10.55;5.22;;;;;;;;;;5489324;26;20026;-80
2024/04/12 01:03:54;;;;;;;10.15;5.18;;;;;;;;;;5491042;26;20018;-83
2024/04/12 01:06:29;;;;;;;9.70;5.18;;;;;;;;;;5488772;26;20014;-83
2024/04/12 01:09:11;;;;;;;11.65;5.25;;;;;;;;;;5489426;26;20325;-82
2024/04/12 01:11:43;;;;;;;10.90;5.25;;;;;;;;;;5488519;26;20030;-81
2024/04/12 01:14:14;;;;;;;11.50;5.45;;;;;;;;;;5491558;26;20010;-84
2024/04/12 01:17:02;;;;;;;14.18;5.88;;;;;;;;;;5491000;26;20018;-80
2024/04/12 01:19:34;;;;;;;10.45;5.15;;;;;;;;;;5492561;26;20023;-84
2024/04/12 01:22:06;;;;;;;10.20;5.05;;;;;;;;;;5488272;26;20031;-81
2024/04/12 01:24:39;;;;;;;15.85;5.18;;;;;;;;;;5488867;26;20019;-81
2024/04/12 01:27:09;;;;;;;8.63;5.50;;;;;;;;;;5459298;26;20018;-83
2024/04/12 01:29:45;;;;;;;12.98;6.50;;;;;;;;;;5488104;26;20387;-81
2024/04/12 01:32:17;;;;;;;13.45;5.63;;;;;;;;;;5490800;26;20476;-81
2024/04/12 01:34:50;;;;;;;7.88;4.75;;;;;;;;;;5494972;26;20008;-81
2024/04/12 01:37:21;;;;;;;7.85;4.95;;;;;;;;;;5487955;26;20022;-83
2024/04/12 01:39:52;;;;;;;18.27;5.70;;;;;;;;;;5490560;26;20351;-81
2024/04/12 01:42:25;;;;;;;10.93;4.70;;;;;;;;;;5491359;26;20027;-81
2024/04/12 01:45:14;;;;;;;10.00;5.07;;;;;;;;;;5489752;26;20018;-81
2024/04/12 01:47:48;;;;;;;15.73;5.13;;;;;;;;;;5488513;26;20018;-82
2024/04/12 01:50:22;;;;;;;;;;;;;;;;;;5488901;26;20327;-81
2024/04/12 01:52:58;;;;;;;8.77;4.35;;;;;;;;;;5488604;26;19947;-83
2024/04/12 01:55:32;;;;;;;9.65;4.88;;;;;;;;;;5488616;26;20457;-81
2024/04/12 01:58:02;;;;;;;8.90;4.03;;;;;;;;;;5490533;26;20022;-85
2024/04/12 02:00:36;;;;;;;9.77;3.63;;;;;;;;;;5490622;26;20148;-85
2024/04/12 02:03:10;;;;;;;10.75;4.10;;;;;;;;;;5490942;26;20467;-81
2024/04/12 02:05:41;;;;;;;11.80;3.42;;;;;;;;;;5489019;26;20022;-84
2024/04/12 02:08:16;;;;;;;10.23;3.53;;;;;;;;;;5490023;26;20014;-81
2024/04/12 02:10:49;;;;;;;8.35;3.08;;;;;;;;;;5489890;26;20014;-81
2024/04/12 02:13:20;;;;;;;7.88;3.05;;;;;;;;;;5488274;26;20369;-81
2024/04/12 02:15:56;;;;;;;7.32;3.38;;;;;;;;;;5490436;26;20014;-86
2024/04/12 02:18:32;;;;;;;8.00;3.53;;;;;;;;;;5487342;26;20021;-82
2024/04/12 02:21:06;;;;;;;6.63;3.15;;;;;;;;;;5490006;26;20039;-81
2024/04/12 02:23:38;;;;;;;8.77;3.30;;;;;;;;;;5488443;26;20023;-81
2024/04/12 02:26:08;;;;;;;7.07;2.60;;;;;;;;;;5489239;26;20476;-83
2024/04/12 02:28:43;;;;;;;8.02;2.65;;;;;;;;;;5490838;26;20022;-81
2024/04/12 02:31:14;;;;;;;9.65;3.47;;;;;;;;;;5491415;26;20358;-81
2024/04/12 02:33:45;;;;;;;7.88;3.05;;;;;;;;;;5489044;26;20015;-81
2024/04/12 02:36:15;;;;;;;10.13;3.17;;;;;;;;;;5490468;26;20023;-83
2024/04/12 02:38:51;;;;;;;10.02;2.92;;;;;;;;;;5487908;26;20018;-86
2024/04/12 02:41:22;;;;;;;9.55;4.05;;;;;;;;;;5488115;26;20022;-83
2024/04/12 02:43:53;;;;;;;7.90;2.95;;;;;;;;;;5486986;26;20017;-83
2024/04/12 02:46:24;;;;;;;7.55;2.72;;;;;;;;;;5489486;26;20396;-85
2024/04/12 02:48:54;;;;;;;8.98;3.25;;;;;;;;;;5489558;26;20014;-81
2024/04/12 02:51:53;;;;;;;6.00;2.88;;;;;;;;;;5489004;26;20353;-82
2024/04/12 02:54:27;;;;;;;8.40;3.30;;;;;;;;;;5490833;26;20010;-82
2024/04/12 02:56:57;;;;;;;5.13;2.75;;;;;;;;;;5489298;26;20485;-82
2024/04/12 02:59:27;;;;;;;5.93;3.08;;;;;;;;;;5486569;26;20023;-82
2024/04/12 03:01:58;;;;;;;7.63;2.72;;;;;;;;;;5489053;26;20022;-81
2024/04/12 03:04:29;;;;;;;7.68;3.17;;;;;;;;;;5489457;26;20014;-81
2024/04/12 03:07:09;;;;;;;9.68;2.95;;;;;;;;;;5456839;26;20018;-85
2024/04/12 03:09:42;;;;;;;6.30;2.72;;;;;;;;;;5489272;26;20019;-81
2024/04/12 03:12:12;;;;;;;8.85;3.10;;;;;;;;;;5486676;26;20033;-82
2024/04/12 03:17:38;;;;;;;7.10;3.13;;;;;;;;;;5489034;26;20027;-82
2024/04/12 03:20:08;;;;;;;7.13;2.83;;;;;;;;;;5487186;26;20027;-84
2024/04/12 03:22:38;;;;;;;9.48;3.20;;;;;;;;;;5490618;26;20436;-85
2024/04/12 03:25:08;;;;;;;8.90;3.05;;;;;;;;;;5460925;26;20018;-84
2024/04/12 03:27:39;;;;;;;14.77;3.70;;;;;;;;;;5460118;26;20472;-82
2024/04/12 03:30:16;;;;;;;11.23;2.90;;;;;;;;;;5492341;26;20026;-81
2024/04/12 03:33:11;;;;;;;8.20;3.05;;;;;;;;;;5491031;26;20014;-81
2024/04/12 03:35:41;;;;;;;5.82;2.60;;;;;;;;;;5492769;26;20093;-82
2024/04/12 03:38:28;;;;;;;5.63;2.85;;;;;;;;;;5490392;26;20018;-81
2024/04/12 03:40:59;;;;;;;9.90;2.90;;;;;;;;;;5490461;26;20024;-82
2024/04/12 03:43:30;;;;;;;7.90;3.03;;;;;;;;;;5492328;26;20023;-85
2024/04/12 03:46:00;;;;;;;8.95;2.75;;;;;;;;;;5492198;26;20018;-81
2024/04/12 03:48:33;;;;;;;8.85;2.67;;;;;;;;;;5490089;26;20022;-82
2024/04/12 03:51:06;;;;;;;8.02;3.10;;;;;;;;;;5490079;26;20026;-81
2024/04/12 03:53:37;;;;;;;9.35;3.08;;;;;;;;;;5489010;26;20027;-82
2024/04/12 03:56:08;;;;;;;8.57;3.10;;;;;;;;;;5490032;26;20023;-83
2024/04/12 03:58:41;;;;;;;7.97;2.92;;;;;;;;;;5488763;26;20022;-85
2024/04/12 04:04:11;;;;;;;6.90;2.75;;;;;;;;;;5491859;26;20018;-83
2024/04/12 04:06:44;;;;;;;8.65;3.40;;;;;;;;;;5490738;26;20018;-81
2024/04/12 04:09:19;;;;;;;8.25;2.70;;;;;;;;;;5489976;26;20030;-82
2024/04/12 04:11:53;;;;;;;8.10;3.10;;;;;;;;;;5489744;26;20014;-83
2024/04/12 04:14:27;;;;;;;5.30;2.72;;;;;;;;;;5492471;26;20022;-85
2024/04/12 04:17:09;;;;;;;6.95;2.90;;;;;;;;;;5490230;26;20381;-81
2024/04/12 04:19:41;;;;;;;8.40;2.95;;;;;;;;;;5489520;26;20022;-84
2024/04/12 04:25:01;;;;;;;9.27;3.20;;;;;;;;;;5491922;26;20014;-82
2024/04/12 04:27:31;;;;;;;11.55;3.42;;;;;;;;;;5491864;26;20022;-82
2024/04/12 04:30:06;;;;;;;9.00;3.38;;;;;;;;;;5491545;26;20022;-82
2024/04/12 04:32:44;;;;;;;9.57;3.15;;;;;;;;;;5488374;26;20465;-83
2024/04/12 04:35:15;;;;;;;9.05;2.95;;;;;;;;;;5490095;26;20030;-86
2024/04/12 04:37:45;;;;;;;9.23;3.85;;;;;;;;;;5490183;26;20018;-84
2024/04/12 04:40:18;;;;;;;13.68;3.45;;;;;;;;;;5496318;26;20010;-82
2024/04/12 04:42:49;;;;;;;6.95;3.30;;;;;;;;;;5498183;26;20009;-84
2024/04/12 04:45:21;;;;;;;12.85;3.55;;;;;;;;;;5497670;26;19995;-82
2024/04/12 04:47:56;;;;;;;8.27;3.50;;;;;;;;;;5508924;26;19986;-82
2024/04/12 04:50:32;;;;;;;9.50;3.20;;;;;;;;;;5505660;20;19995;-83
2024/04/12 04:53:11;;;;;;;13.90;3.90;;;;;;;;;;5584165;21;20010;-81
2024/04/12 04:55:44;;;;;;;;;;;;;;;;;;5514966;26;20008;-83
2024/04/12 04:58:17;;;;;;;7.18;2.92;;;;;;;;;;5471737;26;20578;-82
2024/04/12 05:00:49;;;;;;;16.70;3.35;;;;;;;;;;5492467;26;20014;-82
2024/04/12 05:03:20;;;;;;;12.70;3.63;;;;;;;;;;5492565;26;20030;-82
2024/04/12 05:05:50;;;;;;;9.48;3.45;;;;;;;;;;5488961;26;20473;-86
2024/04/12 05:08:20;;;;;;;8.85;3.40;;;;;;;;;;5459228;26;20038;-83
2024/04/12 05:10:52;;;;;;;7.05;3.05;;;;;;;;;;5429721;26;20018;-81
2024/04/12 05:13:25;;;;;;;13.57;3.80;;;;;;;;;;5490982;26;20018;-83
2024/04/12 05:15:55;;;;;;;10.20;3.35;;;;;;;;;;5429746;26;20018;-84
2024/04/12 05:18:26;;;;;;;7.57;3.40;;;;;;;;;;5491255;26;20014;-81
2024/04/12 05:20:57;;;;;;;7.18;3.42;;;;;;;;;;5459276;26;20017;-81
2024/04/12 05:23:28;;;;;;;8.73;3.83;;;;;;;;;;5457621;26;20018;-85
2024/04/12 05:25:59;;;;;;;8.30;3.85;;;;;;;;;;5490981;26;20023;-81
2024/04/12 05:28:28;;;;;;;7.00;3.10;;;;;;;;;;5428439;26;20023;-81
2024/04/12 05:30:59;;;;;;;7.40;3.13;;;;;;;;;;5490936;26;20014;-81
2024/04/12 05:33:32;;;;;;;7.53;3.10;;;;;;;;;;5457683;26;20019;-82
2024/04/12 05:36:32;;;;;;;;;;;;;;;;;;5465726;26;20018;-81
2024/04/12 05:39:11;;;;;;;6.80;2.97;;;;;;;;;;5490339;26;19959;-84
2024/04/12 05:41:44;;;;;;;12.77;4.03;;;;;;;;;;5429092;26;20141;-82
2024/04/12 05:44:18;;;;;;;10.75;4.18;;;;;;;;;;5488732;26;20364;-81
2024/04/12 05:46:49;;;;;;;14.63;4.32;;;;;;;;;;5490558;26;20365;-81
2024/04/12 05:49:20;;;;;;;9.40;3.25;;;;;;;;;;5457243;26;20034;-80
2024/04/12 05:51:51;;;;;;;10.48;3.05;;;;;;;;;;5490439;26;20030;-82
2024/04/12 05:54:22;;;;;;;8.68;3.17;;;;;;;;;;5457185;26;20026;-80
2024/04/12 05:56:52;;;;;;;9.38;3.05;;;;;;;;;;5457681;26;20027;-82
2024/04/12 05:59:24;;;;;;;7.05;3.00;;;;;;;;;;5488584;26;20479;-82
2024/04/12 06:01:55;;;;;;;13.20;3.58;;;;;;;;;;5490301;26;20480;-81
2024/04/12 06:04:26;;;;;;;11.25;3.35;;;;;;;;;;5490049;26;20018;-81
2024/04/12 06:07:01;;;;;;;9.23;3.50;;;;;;;;;;5459139;26;20014;-81
2024/04/12 06:09:34;;;;;;;11.73;4.40;;;;;;;;;;5490200;26;20026;-81
2024/04/12 06:12:06;;;;;;;11.38;4.55;;;;;;;;;;5487575;26;20465;-81
2024/04/12 06:14:38;;;;;;;;;;;;;;;;;;5490461;26;20014;-85
2024/04/12 06:17:09;;;;;;;16.35;3.90;;;;;;;;;;5458187;26;19947;-81
2024/04/12 06:19:41;;;;;;;11.30;3.80;;;;;;;;;;5457895;26;20034;-81
2024/04/12 06:22:13;;;;;;;11.40;3.88;;;;;;;;;;5489840;26;20465;-81
2024/04/12 06:25:08;;;;;;;8.75;4.03;;;;;;;;;;5489736;26;20018;-81
2024/04/12 06:27:39;;;;;;;11.15;4.20;;;;;;;;;;5489714;26;20027;-83
2024/04/12 06:30:13;;;;;;;8.73;3.85;;;;;;;;;;5489899;26;20023;-83
2024/04/12 06:32:43;;;;;;;8.55;3.83;;;;;;;;;;5457451;26;20022;-81
2024/04/12 06:35:20;;;;;;;11.45;4.25;;;;;;;;;;5457110;26;20018;-81
2024/04/12 06:37:51;;;;;;;13.32;4.15;;;;;;;;;;5458154;26;20027;-81
2024/04/12 06:40:28;;;;;;;10.52;3.83;;;;;;;;;;5489290;26;20049;-84
2024/04/12 06:43:05;;;;;;;12.25;4.13;;;;;;;;;;5489512;26;20023;-81
2024/04/12 06:45:44;;;;;;;9.55;3.78;;;;;;;;;;5489526;26;20030;-81
2024/04/12 06:48:17;;;;;;;12.52;3.53;;;;;;;;;;5486574;26;20018;-83
2024/04/12 06:50:55;;;;;;;11.05;3.53;;;;;;;;;;5489297;26;20027;-81
2024/04/12 06:53:26;;;;;;;15.20;4.15;;;;;;;;;;5426785;26;20031;-84
2024/04/12 06:56:05;;;;;;;9.25;3.90;;;;;;;;;;5458843;26;20026;-81
2024/04/12 06:58:38;;;;;;;9.88;3.97;;;;;;;;;;5431579;26;20022;-81
2024/04/12 07:01:10;;;;;;;14.85;4.40;;;;;;;;;;5492571;26;20026;-81
2024/04/12 07:03:45;;;;;;;9.00;4.20;;;;;;;;;;5461496;26;20196;-81
2024/04/12 07:06:18;;;;;;;11.32;4.32;;;;;;;;;;5492710;26;20473;-81
2024/04/12 07:08:51;;;;;;;13.90;4.18;;;;;;;;;;5492660;26;20022;-81
2024/04/12 07:11:24;;;;;;;9.35;3.80;;;;;;;;;;5461509;26;20022;-81
2024/04/12 07:13:56;;;;;;;11.93;3.70;;;;;;;;;;5460545;26;20380;-81
2024/04/12 07:16:26;;;;;;;11.10;4.22;;;;;;;;;;5461644;26;20023;-81
2024/04/12 07:18:56;;;;;;;10.25;4.05;;;;;;;;;;5461275;26;20022;-81
2024/04/12 07:21:27;;;;;;;8.57;3.55;;;;;;;;;;5492230;26;20026;-81
2024/04/12 07:23:58;;;;;;;12.95;4.05;;;;;;;;;;5460106;26;20022;-84
2024/04/12 07:26:30;;;;;;;12.25;3.85;;;;;;;;;;5461666;26;20465;-84
2024/04/12 07:29:01;;;;;;;8.60;3.70;;;;;;;;;;5430906;26;20022;-82
2024/04/12 07:31:38;;;;;;;13.27;4.00;;;;;;;;;;5492308;26;20142;-82
2024/04/12 07:34:08;;;;;;;13.35;4.25;;;;;;;;;;5460967;26;20340;-81
2024/04/12 07:36:39;;;;;;;8.32;3.45;;;;;;;;;;5492387;26;20027;-80
2024/04/12 07:39:15;;;;;;;10.80;3.90;;;;;;;;;;5492555;26;20030;-84
2024/04/12 07:41:48;;;;;;;9.50;3.90;;;;;;;;;;5460752;26;20026;-80
2024/04/12 07:44:18;;;;;;;7.95;3.58;;;;;;;;;;5460620;26;20014;-84
2024/04/12 07:46:51;;;;;;;8.25;3.65;;;;;;;;;;5490954;26;20022;-81
2024/04/12 07:49:24;;;;;;;9.40;3.60;;;;;;;;;;5460875;26;20027;-81
2024/04/12 07:51:55;;;;;;;9.98;3.60;;;;;;;;;;5459065;26;20030;-80
2024/04/12 07:54:28;;;;;;;8.35;3.40;;;;;;;;;;5459095;26;20019;-80
2024/04/12 07:57:07;;;;;;;9.43;3.35;;;;;;;;;;5461241;26;20030;-82
2024/04/12 07:59:37;;;;;;;9.50;4.65;;;;;;;;;;5488632;26;20031;-81
2024/04/12 08:02:07;;;;;;;8.63;3.17;;;;;;;;;;5460528;26;20109;-83
2024/04/12 08:04:45;;;;;;;10.02;3.78;;;;;;;;;;5460417;26;20027;-85
2024/04/12 08:07:19;;;;;;;8.35;3.90;;;;;;;;;;5427858;26;20149;-83
2024/04/12 08:10:09;;;;;;;7.47;3.70;;;;;;;;;;5458336;26;20018;-82
2024/04/12 08:12:39;;;;;;;10.45;4.15;;;;;;;;;;5491844;26;20452;-84
2024/04/12 08:15:14;;;;;;;8.27;3.25;;;;;;;;;;5491614;26;20026;-80
2024/04/12 08:17:49;;;;;;;12.65;3.60;;;;;;;;;;5430178;26;20022;-81
2024/04/12 08:20:25;;;;;;;8.57;3.90;;;;;;;;;;5491304;26;20025;-80
2024/04/12 08:22:58;;;;;;;8.15;3.92;;;;;;;;;;5460761;26;20014;-83
2024/04/12 08:25:32;;;;;;;10.02;4.15;;;;;;;;;;5460317;26;20018;-81
2024/04/12 08:28:06;;;;;;;11.75;4.20;;;;;;;;;;5491491;26;20026;-83
2024/04/12 08:30:51;;;;;;;7.43;3.85;;;;;;;;;;5429181;26;20038;-81
2024/04/12 08:33:28;;;;;;;9.07;3.72;;;;;;;;;;5430420;26;20026;-81
2024/04/12 08:36:01;;;;;;;7.30;3.40;;;;;;;;;;5457574;26;20030;-80
2024/04/12 08:38:35;;;;;;;11.57;3.83;;;;;;;;;;5429945;26;20034;-81
2024/04/12 08:41:13;;;;;;;12.75;4.80;;;;;;;;;;5488276;26;20359;-80
2024/04/12 08:43:46;;;;;;;11.98;3.78;;;;;;;;;;5489121;26;20018;-81
2024/04/12 08:46:43;;;;;;;11.02;3.58;;;;;;;;;;5491392;26;20022;-81
2024/04/12 08:49:17;;;;;;;9.70;3.72;;;;;;;;;;5459772;26;20022;-81
2024/04/12 08:51:53;;;;;;;13.02;4.10;;;;;;;;;;5491847;26;20377;-83
2024/04/12 08:54:26;;;;;;;11.77;4.32;;;;;;;;;;5491364;26;20027;-81
2024/04/12 08:57:00;;;;;;;19.42;3.65;;;;;;;;;;5487699;26;20026;-81
2024/04/12 08:59:33;;;;;;;12.00;4.28;;;;;;;;;;5459951;26;20027;-85
2024/04/12 09:02:07;;;;;;;15.43;4.57;;;;;;;;;;5459490;26;20022;-81
2024/04/12 09:04:39;;;;;;;11.63;4.03;;;;;;;;;;5491261;26;20022;-82
2024/04/12 09:07:12;;;;;;;12.70;3.90;;;;;;;;;;5490874;26;20018;-83
2024/04/12 09:09:45;;;;;;;12.93;4.60;;;;;;;;;;5490954;26;20320;-81
2024/04/12 09:12:15;;;;;;;12.55;4.55;;;;;;;;;;5457868;26;20026;-81
2024/04/12 09:14:46;;;;;;;10.80;4.65;;;;;;;;;;5491646;26;19998;-82
2024/04/12 09:17:24;;;;;;;9.98;4.50;;;;;;;;;;5459458;26;20018;-84
2024/04/12 09:19:58;;;;;;;11.30;4.38;;;;;;;;;;5458451;26;20018;-84
2024/04/12 09:22:29;;;;;;;13.38;4.30;;;;;;;;;;5490748;26;20018;-81
2024/04/12 09:25:14;;;;;;;14.73;4.55;;;;;;;;;;5489356;26;20461;-81
2024/04/12 09:27:48;;;;;;;9.13;4.32;;;;;;;;;;5457268;26;20015;-82
2024/04/12 09:33:33;;;;;;;12.88;5.32;;;;;;;;;;5488239;26;20363;-82
2024/04/12 09:36:13;;;;;;;9.35;4.05;;;;;;;;;;5459895;26;20026;-82
2024/04/12 09:38:46;;;;;;;8.13;4.22;;;;;;;;;;5490260;26;20018;-84
2024/04/12 09:41:56;;;;;;;9.52;4.35;;;;;;;;;;5465597;26;20026;-82
2024/04/12 09:44:27;;;;;;;9.70;4.40;;;;;;;;;;5457534;26;20022;-81
2024/04/12 10:38:47;;;;;;;9.40;4.40;;;;;;;;;;5417685;26;20042;-81
2024/04/12 10:41:17;;;;;;;9.75;4.15;;;;;;;;;;5450209;26;20035;-80
2024/04/12 10:43:47;;;;;;;7.47;4.18;;;;;;;;;;5419509;26;20027;-81
2024/04/12 10:46:17;;;;;;;10.68;2.92;;;;;;;;;;5444850;26;20066;-85
2024/04/12 10:48:47;;;;;;;7.97;3.03;;;;;;;;;;5455541;26;20476;-81
2024/04/12 10:51:20;;;;;;;5.68;2.97;;;;;;;;;;5450043;26;20031;-82
2024/04/12 10:53:51;;;;;;;6.43;3.50;;;;;;;;;;5484703;26;20329;-83
2024/04/12 10:56:26;;;;;;;7.18;2.85;;;;;;;;;;5483665;26;20030;-82
2024/04/12 10:58:59;;;;;;;9.27;4.00;;;;;;;;;;5486923;26;20052;-82
2024/04/12 11:01:31;;;;;;;6.80;3.08;;;;;;;;;;5502605;26;20019;-83
2024/04/12 11:04:02;;;;;;;7.10;3.10;;;;;;;;;;5497983;26;20005;-82
2024/04/12 11:06:34;;;;;;;9.00;2.95;;;;;;;;;;5482572;26;19994;-82
2024/04/12 11:09:07;;;;;;;6.05;2.88;;;;;;;;;;5509888;26;19990;-84
2024/04/12 11:11:43;;;;;;;5.35;2.90;;;;;;;;;;5452701;26;20009;-84
2024/04/12 11:31:27;;;;;;;4.53;2.15;;;;;;;;;;5489595;26;20488;-81
2024/04/12 11:33:57;;;;;;;5.03;2.28;;;;;;;;;;5455822;26;20022;-81
2024/04/12 11:36:44;;;;;;;5.05;2.17;;;;;;;;;;5490378;26;20018;-81
2024/04/12 11:39:56;;;;;;;7.78;2.30;;;;;;;;;;5472733;26;20022;-83
2024/04/12 11:42:27;;;;;;;5.47;2.28;;;;;;;;;;5489532;26;20484;-80
2024/04/12 11:44:57;;;;;;;6.65;2.25;;;;;;;;;;5460271;26;20022;-80
2024/04/12 11:47:27;;;;;;;4.72;2.00;;;;;;;;;;5509250;26;20021;-79
2024/04/12 11:49:57;;;;;;;7.13;1.92;;;;;;;;;;5492057;26;20031;-84
